Weather Underground® Station Historical Data


Station Historical Data For Bruceton, TN. (K3JAE's Weather Station - KTNBRUCE2)
Daily Summary for:  January 03, 2018 Units:  English    Metric   Both
« Previous Day
Next Day »
Daily Weekly Monthly Yearly Custom
  High: Low: Average:
Temperature: 33.1 °F 15.2 °F 23 °F
Dew Point: 13.8 °F 8.5 °F 11.1 °F
Humidity: 81% 38% 62%
Wind Speed: 14.0mph 0.0mph 4.2mph
Wind Gust: 14.0mph - -
Wind- - West
Pressure: 30.43 in 30.20 in -
Precipitation: 0.00 in    
Historical Graphs
 
 
Tabular Data for:  January 03, 2018
Time Temperature Dew Point Pressure Wind Wind Speed Wind Gust Humidity Rainfall Rate (Hourly) solar Conditions
00:01 16.2 °F 10.8 °F 30.43 in Calm     79% 0.00 in 0.0 W/m2 FEW
00:02 16.2 °F 10.8 °F 30.43 in Calm     79% 0.00 in 0.0 W/m2 FEW
00:07 16.1 °F 10.4 °F 30.42 in Calm     78% 0.00 in 0.0 W/m2 FEW
00:12 16.0 °F 10.1 °F 30.42 in Calm     77% 0.00 in 0.0 W/m2 FEW
00:15 16.0 °F 10.1 °F 30.42 in Calm     77% 0.00 in 0.0 W/m2 FEW
00:16 15.9 °F 10.0 °F 30.41 in Calm     77% 0.00 in 0.0 W/m2 FEW
00:21 15.8 °F 10.2 °F 30.41 in Calm     78% 0.00 in 0.0 W/m2 FEW
00:24 15.8 °F 10.2 °F 30.41 in Calm     78% 0.00 in 0.0 W/m2 FEW
00:25 15.7 °F 10.1 °F 30.41 in Calm     78% 0.00 in 0.0 W/m2 FEW
00:30 15.5 °F 10.4 °F 30.41 in Calm     80% 0.00 in 0.0 W/m2 FEW
00:35 15.4 °F 10.3 °F 30.41 in ENE 1.2 mph 1.2 mph 80% 0.00 in 0.0 W/m2 FEW
00:36 15.4 °F 10.3 °F 30.41 in ENE 1.2 mph 1.2 mph 80% 0.00 in 0.0 W/m2 FEW
00:39 15.3 °F 10.5 °F 30.41 in ENE 1.2 mph   81% 0.00 in 0.0 W/m2 FEW
00:43 15.3 °F 10.2 °F 30.41 in Calm     80% 0.00 in 0.0 W/m2 FEW
00:50 15.2 °F 10.1 °F 30.40 in Calm     80% 0.00 in 0.0 W/m2 FEW
01:00 15.2 °F 10.1 °F 30.40 in Calm     80% 0.00 in 0.0 W/m2 SCT
01:01 15.2 °F 10.1 °F 30.40 in Calm     80% 0.00 in 0.0 W/m2 SCT
01:06 15.2 °F 9.9 °F 30.40 in Calm     79% 0.00 in 0.0 W/m2 SCT
01:09 15.2 °F 9.9 °F 30.41 in Calm     79% 0.00 in 0.0 W/m2 SCT
01:13 15.2 °F 9.6 °F 30.41 in Calm     78% 0.00 in 0.0 W/m2 SCT
01:14 15.2 °F 9.6 °F 30.41 in Calm     78% 0.00 in 0.0 W/m2 SCT
01:19 15.2 °F 9.6 °F 30.40 in Calm     78% 0.00 in 0.0 W/m2 SCT
01:22 15.2 °F 9.3 °F 30.41 in Calm     77% 0.00 in 0.0 W/m2 SCT
01:25 15.2 °F 9.3 °F 30.41 in ENE 1.2 mph 1.2 mph 77% 0.00 in 0.0 W/m2 SCT
01:30 15.3 °F 9.4 °F 30.41 in Calm     77% 0.00 in 0.0 W/m2 SCT
01:33 15.4 °F 9.5 °F 30.41 in Calm     77% 0.00 in 0.0 W/m2 SCT
01:38 15.5 °F 9.6 °F 30.41 in Calm     77% 0.00 in 0.0 W/m2 SCT
01:39 15.5 °F 9.6 °F 30.41 in Calm     77% 0.00 in 0.0 W/m2 SCT
01:41 15.5 °F 9.6 °F 30.41 in Calm     77% 0.00 in 0.0 W/m2 SCT
01:46 15.5 °F 9.6 °F 30.41 in Calm     77% 0.00 in 0.0 W/m2 SCT
01:47 15.6 °F 10.0 °F 30.41 in Calm     78% 0.00 in 0.0 W/m2 SCT
01:49 15.6 °F 10.0 °F 30.41 in Calm     78% 0.00 in 0.0 W/m2 SCT
01:54 15.8 °F 10.4 °F 30.40 in Calm     79% 0.00 in 0.0 W/m2 SCT
02:01 15.9 °F 10.5 °F 30.40 in ENE 2.3 mph 2.3 mph 79% 0.00 in 0.0 W/m2 OVC
02:02 15.9 °F 10.5 °F 30.40 in ENE 2.3 mph 2.3 mph 79% 0.00 in 0.0 W/m2 OVC
02:07 15.9 °F 10.8 °F 30.40 in Calm     80% 0.00 in 0.0 W/m2 OVC
02:12 15.9 °F 11.1 °F 30.40 in ENE 1.2 mph 1.2 mph 81% 0.00 in 0.0 W/m2 OVC
02:13 15.9 °F 11.1 °F 30.40 in ENE 2.3 mph 2.3 mph 81% 0.00 in 0.0 W/m2 OVC
02:19 15.9 °F 11.1 °F 30.40 in ENE 1.2 mph 1.2 mph 81% 0.00 in 0.0 W/m2 OVC
02:24 16.0 °F 10.9 °F 30.40 in Calm     80% 0.00 in 0.0 W/m2 OVC
02:27 16.0 °F 10.6 °F 30.40 in Calm     79% 0.00 in 0.0 W/m2 OVC
02:29 16.1 °F 10.7 °F 30.40 in Calm     79% 0.00 in 0.0 W/m2 OVC
02:34 16.3 °F 10.6 °F 30.40 in ENE 2.3 mph 2.3 mph 78% 0.00 in 0.0 W/m2 OVC
02:36 16.3 °F 10.4 °F 30.40 in ENE 1.2 mph   77% 0.00 in 0.0 W/m2 OVC
02:37 16.3 °F 10.1 °F 30.40 in Calm     76% 0.00 in 0.0 W/m2 OVC
02:42 16.5 °F 10.3 °F 30.40 in ENE 1.2 mph 1.2 mph 76% 0.00 in 0.0 W/m2 OVC
02:47 16.6 °F 10.6 °F 30.41 in ENE 2.0 mph 2.0 mph 77% 0.00 in 0.0 W/m2 OVC
02:48 16.6 °F 10.6 °F 30.41 in ENE 2.3 mph 2.3 mph 77% 0.00 in 0.0 W/m2 OVC
02:53 16.7 °F 10.4 °F 30.41 in ENE 2.3 mph 2.3 mph 76% 0.00 in 0.0 W/m2 OVC
02:54 16.8 °F 10.2 °F 30.41 in ENE 2.3 mph 2.3 mph 75% 0.00 in 0.0 W/m2 OVC
02:59 16.8 °F 9.9 °F 30.41 in ENE 2.3 mph 2.3 mph 74% 0.00 in 0.0 W/m2 OVC
03:02 16.9 °F 10.6 °F 30.41 in ENE 2.3 mph 2.3 mph 76% 0.00 in 0.0 W/m2 OVC
03:05 16.9 °F 10.6 °F 30.42 in ENE 3.5 mph 3.5 mph 76% 0.00 in 0.0 W/m2 OVC
03:11 16.9 °F 10.3 °F 30.42 in NW 3.5 mph 3.5 mph 75% 0.00 in 0.0 W/m2 OVC
03:15 17.0 °F 10.1 °F 30.42 in NW 4.0 mph 4.0 mph 74% 0.00 in 0.0 W/m2 OVC
03:18 16.9 °F 9.7 °F 30.42 in NW 2.3 mph 2.3 mph 73% 0.00 in 0.0 W/m2 OVC
03:23 17.0 °F 9.8 °F 30.41 in NW 2.0 mph 2.0 mph 73% 0.00 in 0.0 W/m2 OVC
03:24 17.0 °F 9.8 °F 30.41 in NW 2.3 mph 2.3 mph 73% 0.00 in 0.0 W/m2 OVC
03:29 17.0 °F 9.5 °F 30.41 in NW 1.2 mph 1.2 mph 72% 0.00 in 0.0 W/m2 OVC
03:36 17.1 °F 9.6 °F 30.40 in NW 1.2 mph 1.2 mph 72% 0.00 in 0.0 W/m2 OVC
03:37 17.1 °F 9.3 °F 30.40 in NW 2.3 mph 2.3 mph 71% 0.00 in 0.0 W/m2 OVC
03:42 17.2 °F 9.7 °F 30.40 in NW 2.3 mph 2.3 mph 72% 0.00 in 0.0 W/m2 OVC
03:43 17.2 °F 9.7 °F 30.40 in NW 2.3 mph 2.3 mph 72% 0.00 in 0.0 W/m2 OVC
03:48 17.3 °F 10.1 °F 30.39 in NW 2.3 mph 2.3 mph 73% 0.00 in 0.0 W/m2 OVC
03:49 17.3 °F 10.1 °F 30.39 in NW 2.3 mph 2.3 mph 73% 0.00 in 0.0 W/m2 OVC
03:54 17.3 °F 10.1 °F 30.39 in Calm     73% 0.00 in 0.0 W/m2 OVC
03:55 17.3 °F 10.1 °F 30.39 in Calm     73% 0.00 in 0.0 W/m2 OVC
04:00 17.3 °F 10.1 °F 30.39 in NW 3.5 mph 3.5 mph 73% 0.00 in 0.0 W/m2 OVC
04:05 17.3 °F 10.1 °F 30.40 in NW 3.5 mph 3.5 mph 73% 0.00 in 0.0 W/m2 OVC
04:06 17.3 °F 10.1 °F 30.40 in NW 3.5 mph 3.5 mph 73% 0.00 in 0.0 W/m2 OVC
04:07 17.4 °F 10.2 °F 30.40 in NW 2.3 mph 2.3 mph 73% 0.00 in 0.0 W/m2 OVC
04:13 17.4 °F 10.2 °F 30.40 in NW 2.3 mph 2.3 mph 73% 0.00 in 0.0 W/m2 OVC
04:15 17.4 °F 10.2 °F 30.40 in NW 2.3 mph 2.3 mph 73% 0.00 in 0.0 W/m2 OVC
04:20 17.4 °F 10.2 °F 30.40 in WNW 2.0 mph 5.0 mph 73% 0.00 in 0.0 W/m2 OVC
04:21 17.5 °F 10.3 °F 30.40 in WNW 3.5 mph 3.5 mph 73% 0.00 in 0.0 W/m2 OVC
04:25 17.4 °F 10.2 °F 30.40 in WNW 3.5 mph 3.5 mph 73% 0.00 in 0.0 W/m2 OVC
04:27 17.4 °F 10.2 °F 30.39 in WNW 3.5 mph 3.5 mph 73% 0.00 in 0.0 W/m2 OVC
04:32 17.5 °F 10.3 °F 30.39 in WNW 1.2 mph   73% 0.00 in 0.0 W/m2 OVC
04:33 17.4 °F 10.2 °F 30.39 in WNW 1.2 mph 1.2 mph 73% 0.00 in 0.0 W/m2 OVC
04:38 17.4 °F 10.2 °F 30.39 in WNW 2.3 mph 2.3 mph 73% 0.00 in 0.0 W/m2 OVC
04:40 17.5 °F 10.3 °F 30.39 in WNW 2.3 mph 2.3 mph 73% 0.00 in 0.0 W/m2 OVC
04:42 17.4 °F 10.2 °F 30.39 in WNW 1.2 mph 1.2 mph 73% 0.00 in 0.0 W/m2 OVC
04:46 17.5 °F 10.3 °F 30.39 in WNW 2.3 mph   73% 0.00 in 0.0 W/m2 OVC
04:50 17.4 °F 9.9 °F 30.38 in WNW 1.2 mph 1.2 mph 72% 0.00 in 0.0 W/m2 OVC
04:51 17.4 °F 9.9 °F 30.38 in WNW 1.2 mph 1.2 mph 72% 0.00 in 0.0 W/m2 OVC
04:56 17.4 °F 10.2 °F 30.39 in WNW 2.3 mph 2.3 mph 73% 0.00 in 0.0 W/m2 OVC
05:02 17.4 °F 10.2 °F 30.39 in WNW 2.3 mph 2.3 mph 73% 0.00 in 0.0 W/m2 OVC
05:03 17.4 °F 10.2 °F 30.39 in WNW 1.2 mph   73% 0.00 in 0.0 W/m2 OVC
05:08 17.3 °F 10.1 °F 30.38 in WNW 1.2 mph   73% 0.00 in 0.0 W/m2 OVC
05:13 17.3 °F 10.1 °F 30.38 in Calm     73% 0.00 in 0.0 W/m2 OVC
05:15 17.3 °F 10.4 °F 30.38 in Calm     74% 0.00 in 0.0 W/m2 OVC
05:16 17.3 °F 10.4 °F 30.38 in Calm     74% 0.00 in 0.0 W/m2 OVC
05:21 17.3 °F 10.1 °F 30.37 in Calm     73% 0.00 in 0.0 W/m2 OVC
05:22 17.4 °F 10.5 °F 30.37 in Calm   0.2 mph 74% 0.00 in 0.0 W/m2 OVC
05:27 17.4 °F 10.5 °F 30.37 in Calm     74% 0.00 in 0.0 W/m2 OVC
05:32 17.4 °F 10.5 °F 30.37 in West 1.2 mph   74% 0.00 in 0.0 W/m2 OVC
05:37 17.4 °F 10.5 °F 30.37 in West 3.5 mph 3.5 mph 74% 0.00 in 0.0 W/m2 OVC
05:38 17.5 °F 10.6 °F 30.37 in West 3.5 mph 3.5 mph 74% 0.00 in 0.0 W/m2 OVC
05:43 17.4 °F 10.5 °F 30.37 in West 2.0 mph 2.0 mph 74% 0.00 in 0.0 W/m2 OVC
05:44 17.4 °F 10.2 °F 30.37 in West 3.5 mph 3.5 mph 73% 0.00 in 0.0 W/m2 OVC
05:47 17.4 °F 10.5 °F 30.37 in West 1.2 mph 1.2 mph 74% 0.00 in 0.0 W/m2 OVC
05:52 17.3 °F 10.4 °F 30.36 in SW 4.0 mph 4.0 mph 74% 0.00 in 0.0 W/m2 OVC
05:53 17.4 °F 10.2 °F 30.36 in SW 3.5 mph 3.5 mph 73% 0.00 in 0.0 W/m2 OVC
05:57 17.4 °F 10.5 °F 30.36 in SW 2.3 mph 2.3 mph 74% 0.00 in 0.0 W/m2 OVC
05:58 17.4 °F 10.5 °F 30.36 in SW 2.3 mph 2.3 mph 74% 0.00 in 0.0 W/m2 OVC
06:03 17.4 °F 10.5 °F 30.35 in SW 3.5 mph 3.5 mph 74% 0.00 in 0.0 W/m2 BKN
06:05 17.4 °F 10.5 °F 30.35 in SW 2.0 mph 5.0 mph 74% 0.00 in 0.0 W/m2 BKN
06:10 17.4 °F 10.2 °F 30.35 in SSW 2.3 mph 2.3 mph 73% 0.00 in 0.0 W/m2 BKN
06:12 17.4 °F 10.2 °F 30.35 in SSW 2.3 mph 2.3 mph 73% 0.00 in 0.0 W/m2 BKN
06:17 17.4 °F 9.9 °F 30.35 in SSW 3.0 mph 3.0 mph 72% 0.00 in 0.0 W/m2 BKN
06:18 17.4 °F 9.9 °F 30.35 in SSW 3.5 mph 3.5 mph 72% 0.00 in 0.0 W/m2 BKN
06:23 17.5 °F 10.0 °F 30.35 in SSW 2.3 mph 2.3 mph 72% 0.00 in 0.0 W/m2 BKN
06:24 17.5 °F 10.0 °F 30.35 in SSW 3.5 mph 3.5 mph 72% 0.00 in 0.0 W/m2 BKN
06:29 17.6 °F 10.1 °F 30.34 in SSW 2.3 mph   72% 0.00 in 0.0 W/m2 BKN
06:31 17.6 °F 10.1 °F 30.34 in SSW 3.5 mph 3.5 mph 72% 0.00 in 0.0 W/m2 BKN
06:36 17.7 °F 10.2 °F 30.34 in SSW 3.5 mph 3.5 mph 72% 0.00 in 0.0 W/m2 BKN
06:39 17.7 °F 10.2 °F 30.35 in SSW 3.5 mph 3.5 mph 72% 0.00 in 0.0 W/m2 BKN
06:41 17.7 °F 10.2 °F 30.35 in SSW 3.5 mph 3.5 mph 72% 0.00 in 0.0 W/m2 BKN
06:44 17.7 °F 10.2 °F 30.35 in SSW 2.3 mph 2.3 mph 72% 0.00 in 0.0 W/m2 BKN
06:46 17.7 °F 10.2 °F 30.35 in SSW 2.3 mph 2.3 mph 72% 0.00 in 0.0 W/m2 BKN
06:51 17.7 °F 10.2 °F 30.34 in SSW 2.3 mph 2.3 mph 72% 0.00 in 0.0 W/m2 BKN
06:52 17.7 °F 10.2 °F 30.34 in SSW 2.3 mph 2.3 mph 72% 0.00 in 0.0 W/m2 BKN
06:57 17.7 °F 9.9 °F 30.34 in SSW 4.6 mph 4.6 mph 71% 0.00 in 0.0 W/m2 BKN
06:58 17.7 °F 9.9 °F 30.34 in SSW 5.0 mph 5.0 mph 71% 0.00 in 0.0 W/m2 BKN
07:03 17.8 °F 10.0 °F 30.34 in SW 3.5 mph 3.5 mph 71% 0.00 in 0.0 W/m2 OVC
07:08 17.9 °F 10.4 °F 30.34 in SW 2.3 mph 2.3 mph 72% 0.00 in 0.0 W/m2 OVC
07:09 17.9 °F 10.4 °F 30.34 in SW 2.3 mph 2.3 mph 72% 0.00 in 0.0 W/m2 OVC
07:14 18.0 °F 9.9 °F 30.34 in SW 4.6 mph 4.6 mph 70% 0.00 in 0.0 W/m2 OVC
07:16 18.0 °F 10.2 °F 30.34 in SW 3.5 mph 3.5 mph 71% 0.00 in 0.0 W/m2 OVC
07:20 18.0 °F 9.9 °F 30.33 in SW 6.0 mph 6.0 mph 70% 0.00 in 0.0 W/m2 OVC
07:22 18.0 °F 9.5 °F 30.34 in SW 5.8 mph 5.8 mph 69% 0.00 in 5.0 W/m2 OVC
07:27 18.0 °F 9.9 °F 30.34 in SW 4.6 mph 4.6 mph 70% 0.00 in 7.0 W/m2 OVC
07:32 18.1 °F 10.0 °F 30.34 in SW 3.5 mph 3.5 mph 70% 0.00 in 11.0 W/m2 OVC
07:33 18.1 °F 10.0 °F 30.34 in SW 3.5 mph 3.5 mph 70% 0.00 in 11.0 W/m2 OVC
07:38 18.3 °F 10.5 °F 30.34 in SW 3.5 mph 3.5 mph 71% 0.00 in 12.0 W/m2 OVC
07:43 18.4 °F 10.2 °F 30.34 in SW 3.5 mph 3.5 mph 70% 0.00 in 16.0 W/m2 OVC
07:48 18.5 °F 10.3 °F 30.34 in SW 3.0 mph 3.0 mph 70% 0.00 in 26.0 W/m2 OVC
07:49 18.5 °F 10.3 °F 30.34 in SW 3.5 mph 3.5 mph 70% 0.00 in 28.0 W/m2 OVC
07:54 18.6 °F 10.4 °F 30.34 in SW 1.2 mph 1.2 mph 70% 0.00 in 37.0 W/m2 OVC
07:55 18.6 °F 10.4 °F 30.34 in SW 1.2 mph 1.2 mph 70% 0.00 in 39.0 W/m2 OVC
07:56 18.7 °F 10.5 °F 30.34 in SW 1.2 mph 1.2 mph 70% 0.00 in 42.0 W/m2 OVC
08:03 18.9 °F 10.4 °F 30.34 in WSW 3.5 mph 3.5 mph 69% 0.00 in 39.0 W/m2 BKN
08:09 18.9 °F 10.4 °F 30.34 in WSW 3.5 mph 3.5 mph 69% 0.00 in 37.0 W/m2 BKN
08:16 19.0 °F 9.8 °F 30.34 in SW 5.0 mph 5.0 mph 67% 0.00 in 47.0 W/m2 BKN
08:22 19.0 °F 10.2 °F 30.34 in WSW 3.5 mph 3.5 mph 68% 0.00 in 56.0 W/m2 BKN
08:27 19.2 °F 10.0 °F 30.34 in WSW 2.3 mph 2.3 mph 67% 0.00 in 58.0 W/m2 BKN
08:28 19.2 °F 10.0 °F 30.34 in SW 4.0 mph 4.0 mph 67% 0.00 in 67.0 W/m2 BKN
08:29 19.3 °F 10.1 °F 30.34 in SW 3.5 mph 3.5 mph 67% 0.00 in 76.0 W/m2 BKN
08:34 19.5 °F 10.0 °F 30.34 in SW 5.0 mph 5.0 mph 66% 0.00 in 113.0 W/m2 BKN
08:36 19.6 °F 10.1 °F 30.34 in SW 4.6 mph 4.6 mph 66% 0.00 in 116.0 W/m2 BKN
08:42 19.9 °F 10.0 °F 30.34 in WSW 6.0 mph 6.0 mph 65% 0.00 in 137.0 W/m2 BKN
08:44 20.1 °F 10.2 °F 30.35 in WSW 5.8 mph 5.8 mph 65% 0.00 in 151.0 W/m2 BKN
08:48 20.4 °F 10.1 °F 30.34 in WSW 2.3 mph 2.3 mph 64% 0.00 in 197.0 W/m2 BKN
08:53 20.8 °F 10.2 °F 30.34 in WSW 3.5 mph 3.5 mph 63% 0.00 in 192.0 W/m2 BKN
08:55 21.1 °F 10.1 °F 30.34 in SW 3.5 mph 3.5 mph 62% 0.00 in 148.0 W/m2 BKN
08:58 21.2 °F 9.8 °F 30.34 in WSW 6.9 mph 6.9 mph 61% 0.00 in 144.0 W/m2 BKN
09:01 21.3 °F 9.9 °F 30.34 in WSW 3.5 mph 3.5 mph 61% 0.00 in 230.0 W/m2 OVC
09:05 21.7 °F 9.9 °F 30.34 in WSW 5.0 mph 5.0 mph 60% 0.00 in 156.0 W/m2 OVC
09:07 21.7 °F 9.6 °F 30.34 in SW 4.6 mph 4.6 mph 59% 0.00 in 111.0 W/m2 OVC
09:12 21.6 °F 9.8 °F 30.34 in SW 3.5 mph 3.5 mph 60% 0.00 in 137.0 W/m2 OVC
09:13 21.6 °F 9.5 °F 30.34 in SW 3.5 mph 3.5 mph 59% 0.00 in 144.0 W/m2 OVC
09:16 21.6 °F 9.5 °F 30.34 in SW 3.5 mph 3.5 mph 59% 0.00 in 113.0 W/m2 OVC
09:19 21.8 °F 9.7 °F 30.34 in SW 4.0 mph 4.0 mph 59% 0.00 in 77.0 W/m2 OVC
09:24 21.8 °F 9.3 °F 30.34 in SSW 3.5 mph 3.5 mph 58% 0.00 in 111.0 W/m2 OVC
09:29 22.0 °F 9.5 °F 30.34 in SW 4.6 mph 4.6 mph 58% 0.00 in 76.0 W/m2 OVC
09:31 22.1 °F 9.6 °F 30.34 in SW 3.5 mph 3.5 mph 58% 0.00 in 84.0 W/m2 OVC
09:37 22.1 °F 9.6 °F 30.33 in WSW 3.5 mph 3.5 mph 58% 0.00 in 121.0 W/m2 OVC
09:42 22.4 °F 9.8 °F 30.33 in SW 5.8 mph 5.8 mph 58% 0.00 in 141.0 W/m2 OVC
09:44 22.5 °F 9.5 °F 30.33 in SW 4.0 mph 4.0 mph 57% 0.00 in 130.0 W/m2 OVC
09:49 22.7 °F 9.3 °F 30.33 in SW 3.5 mph 3.5 mph 56% 0.00 in 135.0 W/m2 OVC
09:50 22.8 °F 9.4 °F 30.33 in SW 3.5 mph 3.5 mph 56% 0.00 in 139.0 W/m2 OVC
09:55 22.8 °F 9.4 °F 30.33 in West 4.0 mph 4.0 mph 56% 0.00 in 134.0 W/m2 OVC
10:01 22.9 °F 9.1 °F 30.33 in SW 4.6 mph 4.6 mph 55% 0.00 in 141.0 W/m2 SCT
10:06 23.0 °F 8.8 °F 30.33 in SW 4.6 mph 4.6 mph 54% 0.00 in 172.0 W/m2 SCT
10:08 23.1 °F 8.9 °F 30.33 in SW 3.5 mph 3.5 mph 54% 0.00 in 174.0 W/m2 SCT
10:13 23.3 °F 9.1 °F 30.33 in WSW 3.5 mph 3.5 mph 54% 0.00 in 172.0 W/m2 SCT
10:15 23.4 °F 9.2 °F 30.33 in WSW 4.0 mph 4.0 mph 54% 0.00 in 174.0 W/m2 SCT
10:20 23.6 °F 8.5 °F 30.32 in West 6.0 mph 6.0 mph 52% 0.00 in 200.0 W/m2 SCT
10:22 23.6 °F 8.5 °F 30.32 in West 4.0 mph 4.0 mph 52% 0.00 in 204.0 W/m2 SCT
10:24 23.7 °F 9.0 °F 30.32 in West 5.8 mph 6.2 mph 53% 0.00 in 213.0 W/m2 SCT
10:29 24.0 °F 9.3 °F 30.32 in WSW 7.0 mph 7.0 mph 53% 0.00 in 225.0 W/m2 SCT
10:30 24.0 °F 8.9 °F 30.32 in WSW 6.9 mph 6.9 mph 52% 0.00 in 223.0 W/m2 SCT
10:35 24.1 °F 9.0 °F 30.31 in WSW 3.5 mph 3.5 mph 52% 0.00 in 213.0 W/m2 SCT
10:36 24.1 °F 9.0 °F 30.31 in WSW 4.0 mph 4.0 mph 52% 0.00 in 220.0 W/m2 SCT
10:41 24.5 °F 9.4 °F 30.31 in SW 5.0 mph 5.0 mph 52% 0.00 in 260.0 W/m2 SCT
10:42 24.5 °F 9.4 °F 30.31 in West 6.0 mph 6.0 mph 52% 0.00 in 271.0 W/m2 SCT
10:46 24.9 °F 9.3 °F 30.31 in SSW 3.5 mph 3.5 mph 51% 0.00 in 193.0 W/m2 SCT
10:47 24.9 °F 9.3 °F 30.31 in SSW 3.5 mph 3.5 mph 51% 0.00 in 181.0 W/m2 SCT
10:52 25.2 °F 9.6 °F 30.31 in West 8.1 mph 8.1 mph 51% 0.00 in 367.0 W/m2 SCT
10:53 25.4 °F 10.2 °F 30.30 in West 4.0 mph 4.0 mph 52% 0.00 in 308.0 W/m2 SCT
10:58 26.0 °F 10.3 °F 30.30 in WSW 4.6 mph 4.6 mph 51% 0.00 in 367.0 W/m2 SCT
11:00 26.1 °F 10.4 °F 30.29 in West 8.0 mph 8.0 mph 51% 0.00 in 348.0 W/m2 SCT
11:03 26.3 °F 10.2 °F 30.29 in WSW 4.6 mph 4.6 mph 50% 0.00 in 388.0 W/m2 CLR
11:08 26.6 °F 10.4 °F 30.28 in WSW 9.2 mph 9.2 mph 50% 0.00 in 436.0 W/m2 CLR
11:13 27.1 °F 10.4 °F 30.28 in West 11.5 mph 11.5 mph 49% 0.00 in 508.0 W/m2 CLR
11:14 27.2 °F 10.5 °F 30.28 in West 9.2 mph 9.2 mph 49% 0.00 in 508.0 W/m2 CLR
11:19 27.3 °F 10.6 °F 30.27 in WSW 8.1 mph 8.1 mph 49% 0.00 in 450.0 W/m2 CLR
11:20 27.3 °F 10.6 °F 30.27 in WNW 6.9 mph 6.9 mph 49% 0.00 in 489.0 W/m2 CLR
11:26 27.8 °F 11.1 °F 30.27 in West 9.2 mph 9.2 mph 49% 0.00 in 517.0 W/m2 CLR
11:31 27.8 °F 10.6 °F 30.27 in West 9.2 mph 9.2 mph 48% 0.00 in 519.0 W/m2 CLR
11:36 28.4 °F 11.2 °F 30.26 in WSW 6.0 mph 6.0 mph 48% 0.00 in 522.0 W/m2 CLR
11:41 28.5 °F 11.3 °F 30.26 in WSW 11.0 mph 11.0 mph 48% 0.00 in 524.0 W/m2 CLR
11:42 28.4 °F 10.7 °F 30.26 in WSW 12.7 mph 12.7 mph 47% 0.00 in 524.0 W/m2 CLR
11:48 28.6 °F 10.9 °F 30.25 in West 11.5 mph 11.5 mph 47% 0.00 in 527.0 W/m2 CLR
11:49 28.9 °F 10.7 °F 30.25 in WSW 13.8 mph 13.8 mph 46% 0.00 in 526.0 W/m2 CLR
11:54 29.0 °F 9.8 °F 30.25 in West 10.4 mph 10.4 mph 44% 0.00 in 526.0 W/m2 CLR
11:58 29.2 °F 10.5 °F 30.24 in West 8.1 mph 8.1 mph 45% 0.00 in 526.0 W/m2 CLR
12:03 29.7 °F 10.9 °F 30.23 in WSW 6.9 mph 6.9 mph 45% 0.00 in 527.0 W/m2 FEW
12:04 29.7 °F 10.9 °F 30.23 in WSW 6.9 mph 6.9 mph 45% 0.00 in 527.0 W/m2 FEW
12:09 30.3 °F 10.4 °F 30.23 in West 8.1 mph 8.1 mph 43% 0.00 in 527.0 W/m2 FEW
12:10 30.3 °F 10.4 °F 30.23 in West 5.8 mph 5.8 mph 43% 0.00 in 527.0 W/m2 FEW
12:15 30.3 °F 9.9 °F 30.23 in WSW 9.2 mph 9.2 mph 42% 0.00 in 526.0 W/m2 FEW
12:17 30.3 °F 9.4 °F 30.23 in West 11.5 mph 11.5 mph 41% 0.00 in 524.0 W/m2 FEW
12:23 30.4 °F 10.0 °F 30.22 in WSW 5.8 mph 5.8 mph 42% 0.00 in 522.0 W/m2 FEW
12:26 30.6 °F 9.7 °F 30.22 in SW 4.6 mph 4.6 mph 41% 0.00 in 522.0 W/m2 FEW
12:29 30.6 °F 9.7 °F 30.22 in West 10.4 mph 10.4 mph 41% 0.00 in 520.0 W/m2 FEW
12:32 30.7 °F 9.7 °F 30.22 in West 8.1 mph 8.1 mph 41% 0.00 in 519.0 W/m2 FEW
12:37 31.5 °F 9.9 °F 30.22 in WNW 8.1 mph 8.1 mph 40% 0.00 in 517.0 W/m2 FEW
12:39 31.6 °F 10.0 °F 30.22 in West 9.2 mph 9.2 mph 40% 0.00 in 513.0 W/m2 FEW
12:44 31.6 °F 9.4 °F 30.22 in West 10.4 mph 10.4 mph 39% 0.00 in 510.0 W/m2 FEW
12:45 31.5 °F 9.4 °F 30.22 in West 11.5 mph 11.5 mph 39% 0.00 in 510.0 W/m2 FEW
12:50 31.6 °F 8.9 °F 30.22 in West 11.5 mph 11.5 mph 38% 0.00 in 506.0 W/m2 FEW
12:51 31.5 °F 8.8 °F 30.22 in West 11.5 mph 11.5 mph 38% 0.00 in 506.0 W/m2 FEW
12:56 31.3 °F 9.2 °F 30.22 in WSW 11.5 mph 11.5 mph 39% 0.00 in 501.0 W/m2 FEW
12:57 31.3 °F 9.2 °F 30.22 in West 11.5 mph 11.5 mph 39% 0.00 in 499.0 W/m2 FEW
13:02 31.3 °F 9.2 °F 30.21 in West 11.5 mph 11.5 mph 39% 0.00 in 494.0 W/m2 CLR
13:05 31.1 °F 9.0 °F 30.22 in West 12.7 mph 12.7 mph 39% 0.00 in 490.0 W/m2 CLR
13:08 30.9 °F 8.8 °F 30.21 in West 11.5 mph 11.5 mph 39% 0.00 in 487.0 W/m2 CLR
13:10 31.1 °F 9.0 °F 30.21 in West 9.2 mph 9.2 mph 39% 0.00 in 485.0 W/m2 CLR
13:15 31.8 °F 10.7 °F 30.21 in WNW 11.5 mph 11.5 mph 41% 0.00 in 478.0 W/m2 CLR
13:17 32.1 °F 10.5 °F 30.21 in West 12.7 mph 12.7 mph 40% 0.00 in 476.0 W/m2 CLR
13:22 31.9 °F 9.7 °F 30.21 in WNW 10.4 mph 10.4 mph 39% 0.00 in 471.0 W/m2 CLR
13:27 32.0 °F 9.8 °F 30.21 in West 8.1 mph 8.1 mph 39% 0.00 in 462.0 W/m2 CLR
13:28 32.0 °F 9.8 °F 30.21 in West 8.1 mph 8.1 mph 39% 0.00 in 462.0 W/m2 CLR
13:33 32.1 °F 9.9 °F 30.21 in West 8.1 mph 8.1 mph 39% 0.00 in 455.0 W/m2 CLR
13:37 32.2 °F 10.5 °F 30.21 in West 11.5 mph 11.5 mph 40% 0.00 in 448.0 W/m2 CLR
13:42 32.1 °F 10.5 °F 30.21 in West 8.1 mph 8.1 mph 40% 0.00 in 439.0 W/m2 CLR
13:47 32.0 °F 10.4 °F 30.21 in WSW 14.0 mph 14.0 mph 40% 0.00 in 431.0 W/m2 CLR
13:48 31.8 °F 10.2 °F 30.21 in WSW 13.8 mph 13.8 mph 40% 0.00 in 427.0 W/m2 CLR
13:53 31.6 °F 10.6 °F 30.21 in WNW 8.1 mph 8.1 mph 41% 0.00 in 420.0 W/m2 CLR
13:55 31.7 °F 10.7 °F 30.21 in WSW 8.1 mph 8.1 mph 41% 0.00 in 417.0 W/m2 CLR
13:58 31.6 °F 10.6 °F 30.21 in WSW 1.2 mph 1.2 mph 41% 0.00 in 411.0 W/m2 CLR
14:02 32.2 °F 11.6 °F 30.20 in West 6.9 mph 6.9 mph 42% 0.00 in 403.0 W/m2 CLR
14:07 32.6 °F 11.5 °F 30.20 in West 8.1 mph 8.1 mph 41% 0.00 in 392.0 W/m2 CLR
14:12 32.9 °F 11.2 °F 30.20 in WSW 6.9 mph 6.9 mph 40% 0.00 in 383.0 W/m2 CLR
14:17 33.1 °F 11.4 °F 30.20 in WSW 10.0 mph 10.0 mph 40% 0.00 in 371.0 W/m2 CLR
14:22 32.5 °F 10.8 °F 30.20 in West 10.4 mph 10.4 mph 40% 0.00 in 360.0 W/m2 CLR
14:23 32.5 °F 10.8 °F 30.20 in NW 9.2 mph 9.2 mph 40% 0.00 in 359.0 W/m2 CLR
14:25 32.7 °F 11.6 °F 30.20 in WNW 11.5 mph 11.5 mph 41% 0.00 in 350.0 W/m2 CLR
14:29 32.5 °F 10.8 °F 30.20 in NW 11.5 mph 11.5 mph 40% 0.00 in 330.0 W/m2 CLR
14:34 32.5 °F 10.8 °F 30.20 in West 11.5 mph 11.5 mph 40% 0.00 in 304.0 W/m2 CLR
14:36 32.5 °F 10.8 °F 30.21 in WNW 11.5 mph 11.5 mph 40% 0.00 in 306.0 W/m2 CLR
14:40 32.5 °F 10.8 °F 30.20 in West 11.0 mph 11.0 mph 40% 0.00 in 285.0 W/m2 CLR
14:45 32.2 °F 11.1 °F 30.20 in West 9.0 mph 9.0 mph 41% 0.00 in 165.0 W/m2 CLR
14:50 32.0 °F 10.9 °F 30.21 in WNW 8.1 mph 8.1 mph 41% 0.00 in 192.0 W/m2 CLR
14:51 32.0 °F 11.5 °F 30.21 in West 8.1 mph 8.1 mph 42% 0.00 in 135.0 W/m2 CLR
14:56 32.1 °F 11.6 °F 30.21 in WNW 5.8 mph 5.8 mph 42% 0.00 in 72.0 W/m2 CLR
15:01 32.0 °F 11.5 °F 30.21 in WSW 8.1 mph 8.1 mph 42% 0.00 in 104.0 W/m2 CLR
15:06 31.9 °F 11.4 °F 30.21 in WNW 10.4 mph 10.4 mph 42% 0.00 in 65.0 W/m2 CLR
15:08 31.9 °F 11.9 °F 30.21 in NW 11.5 mph 11.5 mph 43% 0.00 in 90.0 W/m2 CLR
15:13 32.0 °F 11.5 °F 30.21 in WNW 11.5 mph 11.5 mph 42% 0.00 in 100.0 W/m2 CLR
15:14 32.0 °F 11.5 °F 30.21 in WSW 8.1 mph 8.1 mph 42% 0.00 in 116.0 W/m2 CLR
15:19 32.0 °F 12.0 °F 30.21 in West 10.4 mph 10.4 mph 43% 0.00 in 165.0 W/m2 CLR
15:21 32.0 °F 12.0 °F 30.21 in West 6.9 mph 6.9 mph 43% 0.00 in 156.0 W/m2 CLR
15:22 32.1 °F 12.1 °F 30.21 in West 9.2 mph 9.2 mph 43% 0.00 in 146.0 W/m2 CLR
15:26 32.0 °F 12.0 °F 30.21 in WNW 9.2 mph 9.2 mph 43% 0.00 in 149.0 W/m2 CLR
15:27 32.0 °F 12.0 °F 30.21 in West 9.2 mph 9.2 mph 43% 0.00 in 120.0 W/m2 CLR
15:32 31.9 °F 11.9 °F 30.21 in West 9.2 mph 9.2 mph 43% 0.00 in 37.0 W/m2 CLR
15:33 31.9 °F 11.9 °F 30.21 in West 8.1 mph 8.1 mph 43% 0.00 in 37.0 W/m2 CLR
15:35 31.7 °F 11.7 °F 30.21 in West 10.4 mph 10.4 mph 43% 0.00 in 35.0 W/m2 CLR
15:38 31.6 °F 12.2 °F 30.21 in West 5.8 mph 5.8 mph 44% 0.00 in 51.0 W/m2 CLR
15:40 31.6 °F 12.2 °F 30.21 in WNW 9.2 mph 9.2 mph 44% 0.00 in 56.0 W/m2 CLR
15:43 31.5 °F 11.5 °F 30.22 in WNW 11.5 mph 11.5 mph 43% 0.00 in 33.0 W/m2 CLR
15:45 31.4 °F 12.0 °F 30.22 in NW 11.5 mph 11.5 mph 44% 0.00 in 54.0 W/m2 CLR
15:48 31.3 °F 11.9 °F 30.22 in WNW 10.4 mph 10.4 mph 44% 0.00 in 88.0 W/m2 CLR
15:53 31.2 °F 11.8 °F 30.21 in WNW 9.0 mph 9.0 mph 44% 0.00 in 32.0 W/m2 CLR
15:54 31.2 °F 11.8 °F 30.21 in West 9.2 mph 9.2 mph 44% 0.00 in 30.0 W/m2 CLR
15:57 31.1 °F 12.2 °F 30.21 in WNW 9.2 mph 9.2 mph 45% 0.00 in 30.0 W/m2 CLR
15:59 30.9 °F 12.0 °F 30.21 in WNW 9.2 mph 9.2 mph 45% 0.00 in 28.0 W/m2 CLR
16:04 30.8 °F 11.9 °F 30.21 in WNW 5.8 mph 5.8 mph 45% 0.00 in 30.0 W/m2 CLR
16:10 30.7 °F 12.3 °F 30.22 in WNW 10.4 mph 10.4 mph 46% 0.00 in 26.0 W/m2 CLR
16:12 30.7 °F 11.8 °F 30.21 in West 8.1 mph 8.1 mph 45% 0.00 in 32.0 W/m2 CLR
16:16 30.5 °F 12.2 °F 30.21 in West 9.2 mph 9.2 mph 46% 0.00 in 23.0 W/m2 CLR
16:21 30.3 °F 12.0 °F 30.21 in West 9.2 mph 9.2 mph 46% 0.00 in 19.0 W/m2 CLR
16:26 30.2 °F 12.4 °F 30.21 in WNW 6.9 mph 6.9 mph 47% 0.00 in 18.0 W/m2 CLR
16:30 30.2 °F 12.4 °F 30.21 in WNW 4.0 mph 4.0 mph 47% 0.00 in 16.0 W/m2 CLR
16:32 30.1 °F 12.3 °F 30.21 in WNW 5.0 mph 5.0 mph 47% 0.00 in 14.0 W/m2 CLR
16:37 30.0 °F 12.2 °F 30.22 in WNW 3.5 mph 3.5 mph 47% 0.00 in 12.0 W/m2 CLR
16:41 29.8 °F 12.5 °F 30.22 in WNW 3.5 mph 3.5 mph 48% 0.00 in 11.0 W/m2 CLR
16:42 29.8 °F 12.5 °F 30.22 in WNW 3.5 mph 3.5 mph 48% 0.00 in 9.0 W/m2 CLR
16:47 29.5 °F 12.2 °F 30.22 in WNW 5.8 mph 5.8 mph 48% 0.00 in 7.0 W/m2 CLR
16:52 29.3 °F 12.5 °F 30.22 in West 6.9 mph 6.9 mph 49% 0.00 in 0.0 W/m2 CLR
16:53 29.3 °F 12.5 °F 30.22 in West 6.9 mph 6.9 mph 49% 0.00 in 0.0 W/m2 CLR
16:57 29.0 °F 12.2 °F 30.22 in WNW 4.6 mph 4.6 mph 49% 0.00 in 0.0 W/m2 CLR
16:59 29.0 °F 12.2 °F 30.22 in WNW 3.5 mph 3.5 mph 49% 0.00 in 0.0 W/m2 CLR
17:04 28.8 °F 12.5 °F 30.23 in West 3.5 mph 3.5 mph 50% 0.00 in 0.0 W/m2 CLR
17:09 28.6 °F 12.3 °F 30.23 in West 5.8 mph 5.8 mph 50% 0.00 in 0.0 W/m2 CLR
17:10 28.5 °F 12.2 °F 30.23 in West 3.5 mph 3.5 mph 50% 0.00 in 0.0 W/m2 CLR
17:15 28.4 °F 12.6 °F 30.23 in West 6.0 mph 6.0 mph 51% 0.00 in 0.0 W/m2 CLR
17:16 28.4 °F 12.6 °F 30.23 in West 6.0 mph 6.0 mph 51% 0.00 in 0.0 W/m2 CLR
17:20 28.3 °F 12.5 °F 30.23 in West 5.8 mph 5.8 mph 51% 0.00 in 0.0 W/m2 CLR
17:30 28.0 °F 12.6 °F 30.23 in West 4.0 mph 4.0 mph 52% 0.00 in 0.0 W/m2 CLR
17:36 27.9 °F 12.5 °F 30.23 in West 3.5 mph 3.5 mph 52% 0.00 in 0.0 W/m2 CLR
17:40 27.8 °F 12.4 °F 30.23 in West 5.8 mph 5.8 mph 52% 0.00 in 0.0 W/m2 CLR
17:44 27.8 °F 12.4 °F 30.23 in WNW 6.9 mph 6.9 mph 52% 0.00 in 0.0 W/m2 CLR
17:49 27.6 °F 12.7 °F 30.23 in WNW 3.5 mph 3.5 mph 53% 0.00 in 0.0 W/m2 CLR
17:50 27.6 °F 12.7 °F 30.23 in WNW 4.0 mph 4.0 mph 53% 0.00 in 0.0 W/m2 CLR
17:57 27.5 °F 12.6 °F 30.24 in WNW 4.0 mph 4.0 mph 53% 0.00 in 0.0 W/m2 CLR
18:02 27.3 °F 12.8 °F 30.24 in WNW 4.6 mph 4.6 mph 54% 0.00 in 0.0 W/m2 CLR
18:06 27.2 °F 12.7 °F 30.24 in WNW 3.5 mph 3.5 mph 54% 0.00 in 0.0 W/m2 CLR
18:14 27.0 °F 13.0 °F 30.24 in WNW 3.5 mph 3.5 mph 55% 0.00 in 0.0 W/m2 CLR
18:15 26.9 °F 12.9 °F 30.24 in WNW 3.5 mph 3.5 mph 55% 0.00 in 0.0 W/m2 CLR
18:20 26.8 °F 13.2 °F 30.25 in WNW 3.5 mph 3.5 mph 56% 0.00 in 0.0 W/m2 CLR
18:22 26.7 °F 13.1 °F 30.24 in WNW 4.6 mph 4.6 mph 56% 0.00 in 0.0 W/m2 CLR
18:26 26.7 °F 13.1 °F 30.24 in WNW 3.5 mph 3.5 mph 56% 0.00 in 0.0 W/m2 CLR
18:27 26.6 °F 13.0 °F 30.25 in WNW 3.5 mph 3.5 mph 56% 0.00 in 0.0 W/m2 CLR
18:32 26.5 °F 13.3 °F 30.24 in WNW 2.3 mph 2.3 mph 57% 0.00 in 0.0 W/m2 CLR
18:33 26.4 °F 13.2 °F 30.24 in WNW 2.3 mph 2.3 mph 57% 0.00 in 0.0 W/m2 CLR
18:38 26.3 °F 13.1 °F 30.24 in WNW 2.3 mph 2.3 mph 57% 0.00 in 0.0 W/m2 CLR
18:39 26.2 °F 13.0 °F 30.24 in WNW 3.5 mph 3.5 mph 57% 0.00 in 0.0 W/m2 CLR
18:44 26.1 °F 12.9 °F 30.24 in WNW 2.3 mph 2.3 mph 57% 0.00 in 0.0 W/m2 CLR
18:45 26.1 °F 12.9 °F 30.24 in WNW 2.3 mph 2.3 mph 57% 0.00 in 0.0 W/m2 CLR
18:47 26.0 °F 13.2 °F 30.24 in WNW 2.3 mph 2.3 mph 58% 0.00 in 0.0 W/m2 CLR
18:50 25.9 °F 13.1 °F 30.24 in WNW 3.5 mph 3.5 mph 58% 0.00 in 0.0 W/m2 CLR
18:54 25.8 °F 13.0 °F 30.25 in WNW 3.5 mph 3.5 mph 58% 0.00 in 0.0 W/m2 CLR
18:56 25.7 °F 12.9 °F 30.25 in WNW 2.3 mph 2.3 mph 58% 0.00 in 0.0 W/m2 CLR
19:01 25.6 °F 13.2 °F 30.25 in WNW 2.3 mph 2.3 mph 59% 0.00 in 0.0 W/m2 CLR
19:02 25.6 °F 13.2 °F 30.25 in WNW 2.3 mph 2.3 mph 59% 0.00 in 0.0 W/m2 CLR
19:06 25.5 °F 13.1 °F 30.25 in WNW 2.3 mph 2.3 mph 59% 0.00 in 0.0 W/m2 CLR
19:09 25.5 °F 13.1 °F 30.25 in WNW 2.3 mph 2.3 mph 59% 0.00 in 0.0 W/m2 CLR
19:12 25.4 °F 13.1 °F 30.25 in WNW 2.0 mph 2.0 mph 59% 0.00 in 0.0 W/m2 CLR
19:14 25.4 °F 13.4 °F 30.25 in WNW 2.3 mph 2.3 mph 60% 0.00 in 0.0 W/m2 CLR
19:17 25.4 °F 13.4 °F 30.25 in WNW 3.5 mph 3.5 mph 60% 0.00 in 0.0 W/m2 CLR
19:22 25.3 °F 13.3 °F 30.25 in WNW 3.5 mph 3.5 mph 60% 0.00 in 0.0 W/m2 CLR
19:23 25.3 °F 13.3 °F 30.25 in WNW 3.5 mph 3.5 mph 60% 0.00 in 0.0 W/m2 CLR
19:28 25.2 °F 13.2 °F 30.25 in WNW 3.5 mph 3.5 mph 60% 0.00 in 0.0 W/m2 CLR
19:29 25.2 °F 13.2 °F 30.25 in WNW 3.5 mph 3.7 mph 60% 0.00 in 0.0 W/m2 CLR
19:34 25.3 °F 13.3 °F 30.26 in WNW 3.5 mph 3.5 mph 60% 0.00 in 0.0 W/m2 CLR
19:35 25.3 °F 13.3 °F 30.25 in WNW 3.5 mph 3.5 mph 60% 0.00 in 0.0 W/m2 CLR
19:40 25.3 °F 13.3 °F 30.26 in WNW 4.6 mph 5.1 mph 60% 0.00 in 0.0 W/m2 CLR
19:45 25.4 °F 13.8 °F 30.26 in WNW 8.1 mph 8.1 mph 61% 0.00 in 0.0 W/m2 CLR
19:46 25.3 °F 13.7 °F 30.26 in WNW 8.1 mph 8.1 mph 61% 0.00 in 0.0 W/m2 CLR
19:51 25.3 °F 13.7 °F 30.26 in WNW 4.6 mph 4.6 mph 61% 0.00 in 0.0 W/m2 CLR
19:56 25.2 °F 13.6 °F 30.26 in NW 4.6 mph 4.6 mph 61% 0.00 in 0.0 W/m2 CLR
19:57 25.2 °F 13.6 °F 30.26 in NW 4.6 mph 4.6 mph 61% 0.00 in 0.0 W/m2 CLR
20:02 25.1 °F 13.5 °F 30.26 in NW 3.5 mph 3.5 mph 61% 0.00 in 0.0 W/m2 CLR
20:04 25.0 °F 13.8 °F 30.26 in NNW 4.0 mph 4.0 mph 62% 0.00 in 0.0 W/m2 CLR
20:07 24.9 °F 13.7 °F 30.27 in NW 3.5 mph 3.5 mph 62% 0.00 in 0.0 W/m2 CLR
20:12 24.9 °F 13.7 °F 30.27 in NW 4.6 mph 4.6 mph 62% 0.00 in 0.0 W/m2 CLR
20:14 24.8 °F 13.6 °F 30.27 in NW 3.5 mph 3.5 mph 62% 0.00 in 0.0 W/m2 CLR
20:18 24.8 °F 13.6 °F 30.27 in NW 4.0 mph 4.0 mph 62% 0.00 in 0.0 W/m2 CLR
20:19 24.7 °F 13.5 °F 30.27 in NW 10.0 mph 10.0 mph 62% 0.00 in 0.0 W/m2 CLR
20:20 24.7 °F 13.5 °F 30.27 in NW 10.4 mph 10.4 mph 62% 0.00 in 0.0 W/m2 CLR
20:25 24.6 °F 13.8 °F 30.27 in NW 3.5 mph 3.5 mph 63% 0.00 in 0.0 W/m2 CLR
20:30 24.5 °F 13.7 °F 30.27 in NW 2.3 mph 2.3 mph 63% 0.00 in 0.0 W/m2 CLR
20:31 24.4 °F 13.6 °F 30.27 in NW 3.5 mph 3.5 mph 63% 0.00 in 0.0 W/m2 CLR
20:36 24.2 °F 13.4 °F 30.27 in NW 3.5 mph 3.5 mph 63% 0.00 in 0.0 W/m2 CLR
20:37 24.2 °F 13.4 °F 30.27 in NW 3.5 mph 3.5 mph 63% 0.00 in 0.0 W/m2 CLR
20:42 24.1 °F 13.7 °F 30.27 in NW 3.5 mph 3.5 mph 64% 0.00 in 0.0 W/m2 CLR
20:46 24.0 °F 13.6 °F 30.27 in NW 3.5 mph 3.5 mph 64% 0.00 in 0.0 W/m2 CLR
20:48 23.9 °F 13.5 °F 30.27 in NW 3.0 mph 3.0 mph 64% 0.00 in 0.0 W/m2 CLR
20:55 23.8 °F 13.4 °F 30.27 in North 3.5 mph 3.5 mph 64% 0.00 in 0.0 W/m2 CLR
21:00 23.6 °F 13.2 °F 30.27 in NW 3.5 mph 3.5 mph 64% 0.00 in 0.0 W/m2 CLR
21:05 23.5 °F 13.5 °F 30.27 in NNE 3.5 mph 3.5 mph 65% 0.00 in 0.0 W/m2 CLR
21:09 23.5 °F 13.5 °F 30.27 in NNW 3.5 mph 3.5 mph 65% 0.00 in 0.0 W/m2 CLR
21:12 23.4 °F 13.4 °F 30.27 in NNW 2.3 mph 2.3 mph 65% 0.00 in 0.0 W/m2 CLR
21:17 23.3 °F 13.3 °F 30.27 in NNW 2.3 mph 2.3 mph 65% 0.00 in 0.0 W/m2 CLR
21:19 23.3 °F 13.3 °F 30.27 in NNW 2.3 mph 2.3 mph 65% 0.00 in 0.0 W/m2 CLR
21:22 23.2 °F 13.2 °F 30.28 in NW 6.9 mph 6.9 mph 65% 0.00 in 0.0 W/m2 CLR
21:25 23.1 °F 13.1 °F 30.28 in NW 2.3 mph 2.3 mph 65% 0.00 in 0.0 W/m2 CLR
21:30 23.0 °F 13.0 °F 30.28 in NW 2.3 mph 2.3 mph 65% 0.00 in 0.0 W/m2 CLR
21:40 22.8 °F 13.1 °F 30.27 in NW 2.3 mph 2.3 mph 66% 0.00 in 0.0 W/m2 CLR
21:42 22.7 °F 13.0 °F 30.28 in NW 1.2 mph 1.2 mph 66% 0.00 in 0.0 W/m2 CLR
21:47 22.6 °F 12.9 °F 30.28 in NW 2.3 mph 2.3 mph 66% 0.00 in 0.0 W/m2 CLR
21:48 22.5 °F 12.8 °F 30.27 in NW 1.2 mph 1.2 mph 66% 0.00 in 0.0 W/m2 CLR
21:50 22.5 °F 13.2 °F 30.27 in Calm     67% 0.00 in 0.0 W/m2 CLR
21:55 22.4 °F 13.1 °F 30.27 in NW 2.3 mph 2.3 mph 67% 0.00 in 0.0 W/m2 CLR
21:56 22.3 °F 13.0 °F 30.27 in NW 2.3 mph 2.3 mph 67% 0.00 in 0.0 W/m2 CLR
22:00 22.1 °F 12.8 °F 30.27 in NW 2.3 mph 2.3 mph 67% 0.00 in 0.0 W/m2 CLR
22:03 22.1 °F 13.1 °F 30.28 in Calm     68% 0.00 in 0.0 W/m2 CLR
22:07 21.9 °F 13.0 °F 30.27 in Calm     68% 0.00 in 0.0 W/m2 CLR
22:08 21.9 °F 13.0 °F 30.28 in Calm     68% 0.00 in 0.0 W/m2 CLR
22:13 21.8 °F 12.9 °F 30.27 in Calm     68% 0.00 in 0.0 W/m2 CLR
22:14 21.7 °F 12.8 °F 30.27 in Calm     68% 0.00 in 0.0 W/m2 CLR
22:15 21.7 °F 12.8 °F 30.27 in NW 2.3 mph 2.3 mph 68% 0.00 in 0.0 W/m2 CLR
22:16 21.7 °F 12.8 °F 30.27 in NW 2.3 mph 2.3 mph 68% 0.00 in 0.0 W/m2 CLR
22:17 21.6 °F 12.7 °F 30.27 in NW 1.2 mph 1.2 mph 68% 0.00 in 0.0 W/m2 CLR
22:18 21.5 °F 12.9 °F 30.27 in NW 2.3 mph 2.3 mph 69% 0.00 in 0.0 W/m2 CLR
22:22 21.5 °F 12.9 °F 30.27 in NW 2.3 mph 2.3 mph 69% 0.00 in 0.0 W/m2 CLR
22:27 21.3 °F 12.7 °F 30.27 in Calm     69% 0.00 in 0.0 W/m2 CLR
22:33 21.2 °F 12.9 °F 30.27 in NW 1.2 mph 1.2 mph 70% 0.00 in 0.0 W/m2 CLR
22:36 21.0 °F 12.7 °F 30.27 in Calm     70% 0.00 in 0.0 W/m2 CLR
22:41 20.9 °F 12.6 °F 30.27 in Calm     70% 0.00 in 0.0 W/m2 CLR
22:42 20.9 °F 12.6 °F 30.27 in NW 1.2 mph 1.2 mph 70% 0.00 in 0.0 W/m2 CLR
22:43 20.8 °F 12.6 °F 30.27 in NW 1.2 mph   70% 0.00 in 0.0 W/m2 CLR
22:44 20.8 °F 12.6 °F 30.27 in Calm     70% 0.00 in 0.0 W/m2 CLR
22:49 20.7 °F 12.8 °F 30.27 in NW 1.2 mph 1.2 mph 71% 0.00 in 0.0 W/m2 CLR
22:50 20.6 °F 12.7 °F 30.27 in NW 1.2 mph 1.2 mph 71% 0.00 in 0.0 W/m2 CLR
22:52 20.6 °F 12.7 °F 30.27 in NW 1.2 mph   71% 0.00 in 0.0 W/m2 CLR
22:56 20.5 °F 12.6 °F 30.27 in NW 1.2 mph   71% 0.00 in 0.0 W/m2 CLR
22:57 20.5 °F 12.6 °F 30.27 in Calm     71% 0.00 in 0.0 W/m2 CLR
23:02 20.3 °F 12.4 °F 30.27 in Calm     71% 0.00 in 0.0 W/m2 CLR
23:03 20.3 °F 12.4 °F 30.27 in Calm     71% 0.00 in 0.0 W/m2 CLR
23:04 20.3 °F 12.4 °F 30.27 in Calm     71% 0.00 in 0.0 W/m2 CLR
23:09 20.1 °F 12.5 °F 30.27 in NW 1.2 mph   72% 0.00 in 0.0 W/m2 CLR
23:14 20.0 °F 12.4 °F 30.27 in NW 1.2 mph 1.2 mph 72% 0.00 in 0.0 W/m2 CLR
23:16 19.9 °F 12.3 °F 30.27 in Calm     72% 0.00 in 0.0 W/m2 CLR
23:19 19.9 °F 12.3 °F 30.27 in Calm     72% 0.00 in 0.0 W/m2 CLR
23:21 19.8 °F 12.2 °F 30.27 in NW 1.2 mph 1.2 mph 72% 0.00 in 0.0 W/m2 CLR
23:26 19.7 °F 12.4 °F 30.27 in NW 2.3 mph 2.3 mph 73% 0.00 in 0.0 W/m2 CLR
23:30 19.6 °F 12.3 °F 30.27 in NW 2.3 mph 2.3 mph 73% 0.00 in 0.0 W/m2 CLR
23:35 19.4 °F 12.2 °F 30.27 in NW 1.2 mph 1.2 mph 73% 0.00 in 0.0 W/m2 CLR
23:36 19.4 °F 12.2 °F 30.27 in NW 1.2 mph 1.2 mph 73% 0.00 in 0.0 W/m2 CLR
23:38 19.4 °F 12.5 °F 30.27 in NW 1.0 mph 1.0 mph 74% 0.00 in 0.0 W/m2 CLR
23:42 19.3 °F 12.4 °F 30.27 in NW 1.2 mph 1.2 mph 74% 0.00 in 0.0 W/m2 CLR
23:44 19.2 °F 12.3 °F 30.27 in NW 1.2 mph 1.2 mph 74% 0.00 in 0.0 W/m2 CLR
23:48 19.1 °F 12.2 °F 30.27 in Calm     74% 0.00 in 0.0 W/m2 CLR
23:53 19.0 °F 12.4 °F 30.26 in NW 2.3 mph 2.3 mph 75% 0.00 in 0.0 W/m2 CLR
23:56 18.8 °F 12.2 °F 30.26 in NW 2.3 mph   75% 0.00 in 0.0 W/m2 CLR
23:59 18.8 °F 12.2 °F 30.26 in NW 2.3 mph 2.3 mph 75% 0.00 in 0.0 W/m2 CLR
Bruceton, TN. NWS Weather Forecast
Compliments of:  Weather Underground - 6 mb

Interesting Weather Facts
MOST 1 MINUTE RAIN FALL
Unionville, Maryland on 04 July 1956 recorded a 1-minute rainfall of 1.23 inches (31.2 mm).